Terminal Aerodrome Forecast
Issued by NWS Cleveland, OH

Home | Current Version | Previous Version | Graphics & Text | Print | Product List | Glossary On
Versions: 1 2 3 4 5 6 7 8 9 10 11 12 13 14 15 16 17 18 19
220
FTUS41 KCLE 140524
TAFMFD
TAF
KMFD 140524Z 1406/1506 08006KT P6SM OVC110
     FM141200 08004KT P6SM VCSH OVC050
     FM141800 27004KT P6SM VCSH OVC045
     FM150200 32004KT P6SM SCT045 BKN200=

USA.gov is the U.S. government's official web portal to all federal, state and local government web resources and services.